METAR Data
IDs: Format: Raw Decoded Include TAF

Data at: 0737 UTC 18 Nov 2018

PANN 180653Z AUTO 09007KT 10SM CLR M04/M11 A2957 RMK AO2 SLP026 T10441106 TSNO $
PANN 180553Z AUTO 07009KT 10SM CLR M04/M11 A2957 RMK AO2 SLP024 60000 T10441111 11039 21078 58013 TSNO $
PANN 180453Z AUTO 08008KT 10SM CLR M04/M11 A2959 RMK AO2 SLP031 T10441111 TSNO $
PANN 180353Z AUTO 07008G15KT 10SM CLR M04/M11 A2959 RMK AO2 SLP033 T10441111 TSNO $
PANN 180253Z AUTO 07008KT 10SM CLR M04/M11 A2961 RMK AO2 SLP037 60000 T10441111 58009 TSNO $
PANN 180153Z AUTO 07008KT 10SM CLR M05/M12 A2961 RMK AO2 SLP041 T10501117 TSNO $
PANN 180053Z AUTO VRB03KT 10SM CLR M07/M13 A2963 RMK AO2 UPE34 SLP045 P0000 T10721128 TSNO $
PANN 172353Z AUTO 07008KT 10SM UP CLR M06/M12 A2963 RMK AO2 SLP047 P0000 60000 T10561122 11056 21072 58011 TSNO $
PANN 172253Z AUTO 08008G15KT 10SM UP CLR M06/M13 A2965 RMK AO2 SLP052 P0000 T10561128 TSNO $
PANN 172153Z AUTO 07007KT 10SM UP CLR M06/M13 A2966 RMK AO2 SLP056 P0000 T10611128 TSNO $
PANN 172053Z AUTO 06009KT 10SM UP CLR M07/M13 A2967 RMK AO2 SLP058 P0000 60000 T10671133 56009 TSNO $
PANN 171953Z AUTO 07010KT 10SM UP CLR M07/M13 A2967 RMK AO2 SLP060 P0000 T10671133 TSNO $
PANN 171853Z AUTO 06009KT 10SM UP SCT065 M07/M13 A2968 RMK AO2 SLP062 P0000 T10721133 TSNO $
PANN 171753Z AUTO 07008KT 10SM UP CLR M07/M13 A2969 RMK AO2 SLP067 P0000 60000 T10721133 11061 21144 56007 TSNO $
PANN 171653Z AUTO 07010G17KT 10SM UP OVC065 M07/M13 A2970 RMK AO2 UPB12 SLP068 P0000 T10671133 TSNO $
PANN 171553Z AUTO 07006KT 10SM CLR M07/M13 A2971 RMK AO2 SLP073 T10721133 TSNO $
PANN 171453Z AUTO 07006KT 10SM CLR M07/M13 A2971 RMK AO2 SLP074 60000 T10721128 56015 TSNO $
PANN 171353Z AUTO 28003KT 10SM CLR M14/M17 A2972 RMK AO2 UPB01E02 SLP078 P0000 T11441172 TSNO
PANN 171253Z AUTO VRB04KT 10SM CLR M10/M14 A2974 RMK AO2 SLP083 T11001144 TSNO
PANN 171153Z AUTO 06005KT 10SM CLR M07/M12 A2976 RMK AO2 SLP089 60000 T10671122 11056 21078 56022 TSNO
PANN 171053Z AUTO 07009G14KT 10SM BKN065 M06/M12 A2978 RMK AO2 SLP095 T10561117 TSNO
PANN 170953Z AUTO 08013G17KT 10SM OVC070 M06/M12 A2980 RMK AO2 SLP104 T10561117 TSNO
PANN 170853Z AUTO 07010G15KT 10SM CLR M06/M12 A2983 RMK AO2 SLP112 60000 T10611122 410561117 56020 TSNO
PANN 170753Z AUTO 07010G16KT 10SM CLR M06/M12 A2984 RMK AO2 SLP115 T10611122 TSNO
PANN 170653Z AUTO 06005KT 10SM CLR M06/M12 A2987 RMK AO2 UPE14 SLP126 P0000 T10611122 TSNO
PANN 170553Z AUTO 07007KT 10SM UP FEW095 M06/M12 A2989 RMK AO2 UPE36B52 SLP132 P0000 60000 T10611117 11056 21117 56023 TSNO
PANN 170453Z AUTO 05007KT 10SM UP BKN100 M06/M12 A2990 RMK AO2 UPB26 SLP137 P0000 T10561117 TSNO
PANN 170353Z AUTO 00000KT 10SM FEW120 M11/M15 A2993 RMK AO2 SLP149 T11111150 TSNO
PANN 170253Z AUTO 07009KT 10SM CLR M06/M12 A2995 RMK AO2 SLP155 T10611122 58014 TSNO
PANN 170153Z AUTO 06007KT 10SM CLR M07/M12 A2998 RMK AO2 SLP163 T10671122 TSNO
PANN 170053Z AUTO 06007KT 10SM CLR M07/M12 A2999 RMK AO2 SLP166 T10671122 TSNO
PANN 162353Z AUTO 07009KT 10SM CLR M07/M12 A3000 RMK AO2 SLP169 T10671122 11067 21078 58023 TSNO
PANN 162253Z AUTO 07010G17KT 10SM CLR M07/M13 A3003 RMK AO2 SLP179 T10671128 TSNO
PANN 162153Z AUTO 07011G18KT 10SM CLR M07/M13 A3004 RMK AO2 SLP183 T10721128 TSNO
PANN 162053Z AUTO 07011G20KT 10SM CLR M07/M13 A3006 RMK AO2 SLP192 T10721128 56010 TSNO
PANN 161953Z AUTO 07011G20KT 10SM CLR M08/M13 A3007 RMK AO2 SLP195 T10781128 TSNO